sensor_id;sensor_type;location;lat;lon;timestamp;P1;durP1;ratioP1;P2;durP2;ratioP2
32082;SDS011;18597;48.328;7.932;2023-02-11T00:00:05;67.13;;;31.90;;
32082;SDS011;18597;48.328;7.932;2023-02-11T00:02:32;59.60;;;30.03;;
32082;SDS011;18597;48.328;7.932;2023-02-11T00:04:58;64.77;;;31.50;;
32082;SDS011;18597;48.328;7.932;2023-02-11T00:07:27;84.43;;;35.20;;
32082;SDS011;18597;48.328;7.932;2023-02-11T00:09:54;64.47;;;31.00;;
32082;SDS011;18597;48.328;7.932;2023-02-11T00:12:20;57.03;;;28.73;;
32082;SDS011;18597;48.328;7.932;2023-02-11T00:14:47;71.50;;;31.47;;
32082;SDS011;18597;48.328;7.932;2023-02-11T00:17:13;69.70;;;32.27;;
32082;SDS011;18597;48.328;7.932;2023-02-11T00:19:40;58.00;;;30.50;;
32082;SDS011;18597;48.328;7.932;2023-02-11T00:22:06;60.20;;;30.30;;
32082;SDS011;18597;48.328;7.932;2023-02-11T00:24:32;63.40;;;29.83;;
32082;SDS011;18597;48.328;7.932;2023-02-11T00:26:58;60.37;;;29.90;;
32082;SDS011;18597;48.328;7.932;2023-02-11T00:29:24;66.00;;;28.90;;
32082;SDS011;18597;48.328;7.932;2023-02-11T00:31:50;67.13;;;29.90;;
32082;SDS011;18597;48.328;7.932;2023-02-11T00:34:16;63.10;;;29.17;;
32082;SDS011;18597;48.328;7.932;2023-02-11T00:36:42;69.03;;;31.30;;
32082;SDS011;18597;48.328;7.932;2023-02-11T00:39:07;65.07;;;30.87;;
32082;SDS011;18597;48.328;7.932;2023-02-11T00:41:33;65.77;;;31.67;;
32082;SDS011;18597;48.328;7.932;2023-02-11T00:44:00;58.50;;;29.57;;
32082;SDS011;18597;48.328;7.932;2023-02-11T00:46:26;62.37;;;30.93;;
32082;SDS011;18597;48.328;7.932;2023-02-11T00:48:52;58.20;;;27.03;;
32082;SDS011;18597;48.328;7.932;2023-02-11T00:51:22;60.03;;;29.97;;
32082;SDS011;18597;48.328;7.932;2023-02-11T00:53:49;57.80;;;28.50;;
32082;SDS011;18597;48.328;7.932;2023-02-11T00:56:15;61.60;;;28.77;;
32082;SDS011;18597;48.328;7.932;2023-02-11T00:58:41;63.93;;;28.43;;
32082;SDS011;18597;48.328;7.932;2023-02-11T01:01:07;64.60;;;31.23;;
32082;SDS011;18597;48.328;7.932;2023-02-11T01:03:33;59.37;;;30.13;;
32082;SDS011;18597;48.328;7.932;2023-02-11T01:05:59;59.33;;;28.40;;
32082;SDS011;18597;48.328;7.932;2023-02-11T01:08:26;65.40;;;31.83;;
32082;SDS011;18597;48.328;7.932;2023-02-11T01:10:53;63.90;;;28.50;;
32082;SDS011;18597;48.328;7.932;2023-02-11T01:13:21;74.57;;;30.70;;
32082;SDS011;18597;48.328;7.932;2023-02-11T01:15:48;56.17;;;25.63;;
32082;SDS011;18597;48.328;7.932;2023-02-11T01:18:14;51.83;;;26.03;;
32082;SDS011;18597;48.328;7.932;2023-02-11T01:20:40;59.70;;;25.95;;
32082;SDS011;18597;48.328;7.932;2023-02-11T01:23:06;53.87;;;24.93;;
32082;SDS011;18597;48.328;7.932;2023-02-11T01:25:32;53.63;;;26.93;;
32082;SDS011;18597;48.328;7.932;2023-02-11T01:27:57;58.37;;;28.97;;
32082;SDS011;18597;48.328;7.932;2023-02-11T01:30:23;67.73;;;31.20;;
32082;SDS011;18597;48.328;7.932;2023-02-11T01:32:49;59.37;;;28.07;;
32082;SDS011;18597;48.328;7.932;2023-02-11T01:35:15;58.60;;;28.37;;
32082;SDS011;18597;48.328;7.932;2023-02-11T01:37:41;59.67;;;28.47;;
32082;SDS011;18597;48.328;7.932;2023-02-11T01:40:10;55.30;;;28.02;;
32082;SDS011;18597;48.328;7.932;2023-02-11T01:42:40;60.83;;;29.30;;
32082;SDS011;18597;48.328;7.932;2023-02-11T01:48:12;51.20;;;25.43;;
32082;SDS011;18597;48.328;7.932;2023-02-11T01:50:44;54.97;;;25.33;;
32082;SDS011;18597;48.328;7.932;2023-02-11T01:53:14;53.78;;;25.73;;
32082;SDS011;18597;48.328;7.932;2023-02-11T01:56:02;54.50;;;24.30;;
32082;SDS011;18597;48.328;7.932;2023-02-11T01:58:49;51.65;;;26.52;;
32082;SDS011;18597;48.328;7.932;2023-02-11T02:01:18;60.63;;;25.57;;
32082;SDS011;18597;48.328;7.932;2023-02-11T02:03:49;52.67;;;24.33;;
32082;SDS011;18597;48.328;7.932;2023-02-11T02:06:19;51.33;;;24.90;;
32082;SDS011;18597;48.328;7.932;2023-02-11T02:08:55;48.77;;;24.53;;
32082;SDS011;18597;48.328;7.932;2023-02-11T02:11:30;60.63;;;28.67;;
32082;SDS011;18597;48.328;7.932;2023-02-11T02:13:56;63.17;;;26.30;;
32082;SDS011;18597;48.328;7.932;2023-02-11T02:16:24;68.78;;;27.58;;
32082;SDS011;18597;48.328;7.932;2023-02-11T02:22:11;49.77;;;25.83;;
32082;SDS011;18597;48.328;7.932;2023-02-11T02:35:08;54.43;;;25.40;;
32082;SDS011;18597;48.328;7.932;2023-02-11T02:38:18;47.60;;;23.77;;
32082;SDS011;18597;48.328;7.932;2023-02-11T02:41:01;49.50;;;24.02;;
32082;SDS011;18597;48.328;7.932;2023-02-11T02:43:34;51.80;;;24.20;;
32082;SDS011;18597;48.328;7.932;2023-02-11T02:46:10;39.17;;;21.80;;
32082;SDS011;18597;48.328;7.932;2023-02-11T02:48:44;44.03;;;22.80;;
32082;SDS011;18597;48.328;7.932;2023-02-11T02:51:20;43.63;;;20.63;;
32082;SDS011;18597;48.328;7.932;2023-02-11T03:00:14;47.87;;;22.20;;
32082;SDS011;18597;48.328;7.932;2023-02-11T03:03:16;38.13;;;21.27;;
32082;SDS011;18597;48.328;7.932;2023-02-11T03:06:03;39.63;;;20.23;;
32082;SDS011;18597;48.328;7.932;2023-02-11T03:08:43;41.60;;;21.77;;
32082;SDS011;18597;48.328;7.932;2023-02-11T03:11:18;44.50;;;22.23;;
32082;SDS011;18597;48.328;7.932;2023-02-11T03:13:46;41.90;;;21.03;;
32082;SDS011;18597;48.328;7.932;2023-02-11T03:16:18;47.67;;;23.87;;
32082;SDS011;18597;48.328;7.932;2023-02-11T03:18:51;41.87;;;23.60;;
32082;SDS011;18597;48.328;7.932;2023-02-11T03:21:26;50.30;;;25.30;;
32082;SDS011;18597;48.328;7.932;2023-02-11T03:23:54;46.17;;;21.90;;
32082;SDS011;18597;48.328;7.932;2023-02-11T03:26:26;42.27;;;21.47;;
32082;SDS011;18597;48.328;7.932;2023-02-11T03:29:29;48.57;;;21.47;;
32082;SDS011;18597;48.328;7.932;2023-02-11T03:32:04;39.13;;;21.07;;
32082;SDS011;18597;48.328;7.932;2023-02-11T03:34:43;42.13;;;22.00;;
32082;SDS011;18597;48.328;7.932;2023-02-11T03:40:04;42.77;;;22.67;;
32082;SDS011;18597;48.328;7.932;2023-02-11T03:42:42;43.53;;;23.13;;
32082;SDS011;18597;48.328;7.932;2023-02-11T03:45:15;41.85;;;23.90;;
32082;SDS011;18597;48.328;7.932;2023-02-11T03:47:47;51.97;;;23.87;;
32082;SDS011;18597;48.328;7.932;2023-02-11T03:50:22;46.40;;;21.93;;
32082;SDS011;18597;48.328;7.932;2023-02-11T03:52:50;42.20;;;22.03;;
32082;SDS011;18597;48.328;7.932;2023-02-11T03:55:18;45.60;;;22.77;;
32082;SDS011;18597;48.328;7.932;2023-02-11T03:57:46;51.80;;;24.33;;
32082;SDS011;18597;48.328;7.932;2023-02-11T04:00:12;39.30;;;21.20;;
32082;SDS011;18597;48.328;7.932;2023-02-11T04:02:39;47.80;;;23.90;;
32082;SDS011;18597;48.328;7.932;2023-02-11T04:05:07;45.20;;;22.87;;
32082;SDS011;18597;48.328;7.932;2023-02-11T04:07:36;48.53;;;23.43;;
32082;SDS011;18597;48.328;7.932;2023-02-11T04:10:02;47.07;;;23.03;;
32082;SDS011;18597;48.328;7.932;2023-02-11T04:12:28;48.23;;;22.10;;
32082;SDS011;18597;48.328;7.932;2023-02-11T04:14:54;51.67;;;23.20;;
32082;SDS011;18597;48.328;7.932;2023-02-11T04:17:20;45.77;;;22.30;;
32082;SDS011;18597;48.328;7.932;2023-02-11T04:19:46;53.00;;;24.60;;
32082;SDS011;18597;48.328;7.932;2023-02-11T04:22:11;46.47;;;22.30;;
32082;SDS011;18597;48.328;7.932;2023-02-11T04:24:37;44.30;;;22.75;;
32082;SDS011;18597;48.328;7.932;2023-02-11T04:27:03;43.07;;;23.10;;
32082;SDS011;18597;48.328;7.932;2023-02-11T04:29:29;44.43;;;23.10;;
32082;SDS011;18597;48.328;7.932;2023-02-11T04:31:56;38.37;;;22.63;;
32082;SDS011;18597;48.328;7.932;2023-02-11T04:34:22;55.67;;;28.73;;
32082;SDS011;18597;48.328;7.932;2023-02-11T04:36:49;46.40;;;23.30;;
32082;SDS011;18597;48.328;7.932;2023-02-11T04:39:15;40.60;;;20.70;;
32082;SDS011;18597;48.328;7.932;2023-02-11T04:41:41;42.08;;;20.20;;
32082;SDS011;18597;48.328;7.932;2023-02-11T04:44:06;44.97;;;23.03;;
32082;SDS011;18597;48.328;7.932;2023-02-11T04:46:32;48.87;;;24.37;;
32082;SDS011;18597;48.328;7.932;2023-02-11T04:48:58;41.67;;;21.60;;
32082;SDS011;18597;48.328;7.932;2023-02-11T04:51:24;52.40;;;25.43;;
32082;SDS011;18597;48.328;7.932;2023-02-11T04:53:50;52.67;;;22.97;;
32082;SDS011;18597;48.328;7.932;2023-02-11T04:56:15;49.53;;;23.07;;
32082;SDS011;18597;48.328;7.932;2023-02-11T04:58:41;50.93;;;24.90;;
32082;SDS011;18597;48.328;7.932;2023-02-11T05:01:08;55.70;;;28.08;;
32082;SDS011;18597;48.328;7.932;2023-02-11T05:03:36;50.47;;;25.10;;
32082;SDS011;18597;48.328;7.932;2023-02-11T05:06:02;53.87;;;26.07;;
32082;SDS011;18597;48.328;7.932;2023-02-11T05:08:29;49.70;;;24.20;;
32082;SDS011;18597;48.328;7.932;2023-02-11T05:10:55;46.53;;;23.83;;
32082;SDS011;18597;48.328;7.932;2023-02-11T05:13:22;43.33;;;21.20;;
32082;SDS011;18597;48.328;7.932;2023-02-11T05:15:48;36.67;;;20.13;;
32082;SDS011;18597;48.328;7.932;2023-02-11T05:18:14;43.67;;;23.23;;
32082;SDS011;18597;48.328;7.932;2023-02-11T05:20:40;40.50;;;23.00;;
32082;SDS011;18597;48.328;7.932;2023-02-11T05:23:07;51.73;;;24.50;;
32082;SDS011;18597;48.328;7.932;2023-02-11T05:25:33;45.20;;;24.47;;
32082;SDS011;18597;48.328;7.932;2023-02-11T05:27:59;47.70;;;23.23;;
32082;SDS011;18597;48.328;7.932;2023-02-11T05:30:25;41.97;;;23.00;;
32082;SDS011;18597;48.328;7.932;2023-02-11T05:32:52;46.80;;;23.50;;
32082;SDS011;18597;48.328;7.932;2023-02-11T05:35:18;60.93;;;29.77;;
32082;SDS011;18597;48.328;7.932;2023-02-11T05:37:44;45.77;;;24.30;;
32082;SDS011;18597;48.328;7.932;2023-02-11T05:40:10;46.53;;;23.07;;
32082;SDS011;18597;48.328;7.932;2023-02-11T05:42:36;44.17;;;25.03;;
32082;SDS011;18597;48.328;7.932;2023-02-11T05:45:02;54.97;;;25.30;;
32082;SDS011;18597;48.328;7.932;2023-02-11T05:47:28;42.53;;;20.80;;
32082;SDS011;18597;48.328;7.932;2023-02-11T05:49:54;45.77;;;21.40;;
32082;SDS011;18597;48.328;7.932;2023-02-11T05:52:20;45.63;;;22.90;;
32082;SDS011;18597;48.328;7.932;2023-02-11T05:54:47;42.57;;;26.00;;
32082;SDS011;18597;48.328;7.932;2023-02-11T05:57:13;44.73;;;22.00;;
32082;SDS011;18597;48.328;7.932;2023-02-11T05:59:40;59.63;;;29.67;;
32082;SDS011;18597;48.328;7.932;2023-02-11T06:02:06;80.10;;;40.33;;
32082;SDS011;18597;48.328;7.932;2023-02-11T06:04:33;47.33;;;28.10;;
32082;SDS011;18597;48.328;7.932;2023-02-11T06:07:01;46.03;;;21.97;;
32082;SDS011;18597;48.328;7.932;2023-02-11T06:09:27;57.57;;;25.63;;
32082;SDS011;18597;48.328;7.932;2023-02-11T06:11:53;51.23;;;25.43;;
32082;SDS011;18597;48.328;7.932;2023-02-11T06:14:19;45.87;;;24.40;;
32082;SDS011;18597;48.328;7.932;2023-02-11T06:16:44;52.87;;;23.70;;
32082;SDS011;18597;48.328;7.932;2023-02-11T06:19:11;44.43;;;24.30;;
32082;SDS011;18597;48.328;7.932;2023-02-11T06:21:37;44.57;;;22.07;;
32082;SDS011;18597;48.328;7.932;2023-02-11T06:24:04;42.40;;;22.57;;
32082;SDS011;18597;48.328;7.932;2023-02-11T06:26:30;40.00;;;20.50;;
32082;SDS011;18597;48.328;7.932;2023-02-11T06:28:59;46.67;;;23.57;;
32082;SDS011;18597;48.328;7.932;2023-02-11T06:31:25;42.03;;;22.20;;
32082;SDS011;18597;48.328;7.932;2023-02-11T06:33:52;45.27;;;22.90;;
32082;SDS011;18597;48.328;7.932;2023-02-11T06:36:19;49.17;;;24.40;;
32082;SDS011;18597;48.328;7.932;2023-02-11T06:38:47;54.27;;;29.07;;
32082;SDS011;18597;48.328;7.932;2023-02-11T06:41:14;47.73;;;23.60;;
32082;SDS011;18597;48.328;7.932;2023-02-11T06:43:43;61.07;;;34.73;;
32082;SDS011;18597;48.328;7.932;2023-02-11T06:46:10;43.60;;;26.50;;
32082;SDS011;18597;48.328;7.932;2023-02-11T06:48:36;41.50;;;24.53;;
32082;SDS011;18597;48.328;7.932;2023-02-11T06:51:03;47.80;;;25.10;;
32082;SDS011;18597;48.328;7.932;2023-02-11T06:53:33;50.63;;;26.00;;
32082;SDS011;18597;48.328;7.932;2023-02-11T06:56:02;48.67;;;27.27;;
32082;SDS011;18597;48.328;7.932;2023-02-11T06:58:31;43.13;;;23.55;;
32082;SDS011;18597;48.328;7.932;2023-02-11T07:00:57;37.47;;;22.23;;
32082;SDS011;18597;48.328;7.932;2023-02-11T07:03:24;42.10;;;22.87;;
32082;SDS011;18597;48.328;7.932;2023-02-11T07:05:50;39.67;;;22.27;;
32082;SDS011;18597;48.328;7.932;2023-02-11T07:08:16;41.60;;;22.37;;
32082;SDS011;18597;48.328;7.932;2023-02-11T07:10:42;50.10;;;26.70;;
32082;SDS011;18597;48.328;7.932;2023-02-11T07:13:08;59.80;;;28.43;;
32082;SDS011;18597;48.328;7.932;2023-02-11T07:15:35;37.50;;;22.17;;
32082;SDS011;18597;48.328;7.932;2023-02-11T07:18:02;46.23;;;24.40;;
32082;SDS011;18597;48.328;7.932;2023-02-11T07:20:28;40.73;;;22.60;;
32082;SDS011;18597;48.328;7.932;2023-02-11T07:22:53;44.07;;;23.60;;
32082;SDS011;18597;48.328;7.932;2023-02-11T07:25:19;60.13;;;31.50;;
32082;SDS011;18597;48.328;7.932;2023-02-11T07:27:45;35.10;;;20.60;;
32082;SDS011;18597;48.328;7.932;2023-02-11T07:30:11;42.63;;;22.20;;
32082;SDS011;18597;48.328;7.932;2023-02-11T07:32:38;43.80;;;25.77;;
32082;SDS011;18597;48.328;7.932;2023-02-11T07:35:03;45.50;;;23.10;;
32082;SDS011;18597;48.328;7.932;2023-02-11T07:37:31;43.37;;;23.00;;
32082;SDS011;18597;48.328;7.932;2023-02-11T07:39:59;38.50;;;21.93;;
32082;SDS011;18597;48.328;7.932;2023-02-11T07:42:24;62.37;;;33.53;;
32082;SDS011;18597;48.328;7.932;2023-02-11T07:44:50;44.20;;;23.97;;
32082;SDS011;18597;48.328;7.932;2023-02-11T07:47:16;50.70;;;27.47;;
32082;SDS011;18597;48.328;7.932;2023-02-11T07:49:42;53.33;;;25.90;;
32082;SDS011;18597;48.328;7.932;2023-02-11T07:52:09;36.63;;;21.60;;
32082;SDS011;18597;48.328;7.932;2023-02-11T07:54:35;45.63;;;25.93;;
32082;SDS011;18597;48.328;7.932;2023-02-11T07:57:00;44.63;;;22.33;;
32082;SDS011;18597;48.328;7.932;2023-02-11T07:59:26;32.60;;;20.10;;
32082;SDS011;18597;48.328;7.932;2023-02-11T08:01:52;45.53;;;23.87;;
32082;SDS011;18597;48.328;7.932;2023-02-11T08:04:18;39.17;;;21.87;;
32082;SDS011;18597;48.328;7.932;2023-02-11T08:06:44;43.40;;;25.60;;
32082;SDS011;18597;48.328;7.932;2023-02-11T08:09:13;44.50;;;21.60;;
32082;SDS011;18597;48.328;7.932;2023-02-11T08:11:40;46.03;;;25.50;;
32082;SDS011;18597;48.328;7.932;2023-02-11T08:14:07;46.43;;;24.80;;
32082;SDS011;18597;48.328;7.932;2023-02-11T08:16:34;52.20;;;28.20;;
32082;SDS011;18597;48.328;7.932;2023-02-11T08:19:02;49.53;;;23.70;;
32082;SDS011;18597;48.328;7.932;2023-02-11T08:21:32;41.93;;;22.57;;
32082;SDS011;18597;48.328;7.932;2023-02-11T08:23:58;47.97;;;25.10;;
32082;SDS011;18597;48.328;7.932;2023-02-11T08:26:27;57.17;;;28.27;;
32082;SDS011;18597;48.328;7.932;2023-02-11T08:28:56;53.20;;;26.73;;
32082;SDS011;18597;48.328;7.932;2023-02-11T08:31:23;63.23;;;29.20;;
32082;SDS011;18597;48.328;7.932;2023-02-11T08:33:52;53.73;;;28.27;;
32082;SDS011;18597;48.328;7.932;2023-02-11T08:36:23;53.77;;;30.13;;
32082;SDS011;18597;48.328;7.932;2023-02-11T08:38:53;48.37;;;27.07;;
32082;SDS011;18597;48.328;7.932;2023-02-11T08:41:21;49.37;;;24.03;;
32082;SDS011;18597;48.328;7.932;2023-02-11T08:43:47;47.73;;;26.93;;
32082;SDS011;18597;48.328;7.932;2023-02-11T08:46:14;49.10;;;27.87;;
32082;SDS011;18597;48.328;7.932;2023-02-11T08:48:42;38.93;;;25.63;;
32082;SDS011;18597;48.328;7.932;2023-02-11T08:51:11;42.60;;;24.60;;
32082;SDS011;18597;48.328;7.932;2023-02-11T08:53:41;44.40;;;23.37;;
32082;SDS011;18597;48.328;7.932;2023-02-11T08:56:08;36.90;;;22.63;;
32082;SDS011;18597;48.328;7.932;2023-02-11T08:58:36;42.80;;;25.00;;
32082;SDS011;18597;48.328;7.932;2023-02-11T09:01:08;35.93;;;21.77;;
32082;SDS011;18597;48.328;7.932;2023-02-11T09:03:36;35.27;;;22.93;;
32082;SDS011;18597;48.328;7.932;2023-02-11T09:06:03;49.77;;;26.70;;
32082;SDS011;18597;48.328;7.932;2023-02-11T09:08:33;43.50;;;25.70;;
32082;SDS011;18597;48.328;7.932;2023-02-11T09:11:02;44.13;;;24.30;;
32082;SDS011;18597;48.328;7.932;2023-02-11T09:13:29;40.90;;;25.20;;
32082;SDS011;18597;48.328;7.932;2023-02-11T09:15:56;45.00;;;26.60;;
32082;SDS011;18597;48.328;7.932;2023-02-11T09:18:23;42.40;;;25.00;;
32082;SDS011;18597;48.328;7.932;2023-02-11T09:20:49;49.90;;;26.20;;
32082;SDS011;18597;48.328;7.932;2023-02-11T09:23:15;49.80;;;26.00;;
32082;SDS011;18597;48.328;7.932;2023-02-11T09:25:41;49.90;;;28.90;;
32082;SDS011;18597;48.328;7.932;2023-02-11T09:28:07;52.27;;;27.63;;
32082;SDS011;18597;48.328;7.932;2023-02-11T09:30:36;42.93;;;25.37;;
32082;SDS011;18597;48.328;7.932;2023-02-11T09:33:02;45.53;;;24.57;;
32082;SDS011;18597;48.328;7.932;2023-02-11T09:35:28;42.17;;;22.53;;
32082;SDS011;18597;48.328;7.932;2023-02-11T09:37:54;36.50;;;21.97;;
32082;SDS011;18597;48.328;7.932;2023-02-11T09:40:20;42.50;;;25.17;;
32082;SDS011;18597;48.328;7.932;2023-02-11T09:42:56;38.97;;;22.40;;
32082;SDS011;18597;48.328;7.932;2023-02-11T09:45:33;38.30;;;22.00;;
32082;SDS011;18597;48.328;7.932;2023-02-11T09:48:00;34.40;;;20.20;;
32082;SDS011;18597;48.328;7.932;2023-02-11T09:50:38;34.43;;;21.30;;
32082;SDS011;18597;48.328;7.932;2023-02-11T09:53:10;37.07;;;21.93;;
32082;SDS011;18597;48.328;7.932;2023-02-11T09:55:47;39.27;;;20.03;;
32082;SDS011;18597;48.328;7.932;2023-02-11T09:58:37;37.87;;;23.23;;
32082;SDS011;18597;48.328;7.932;2023-02-11T10:04:13;36.83;;;21.93;;
32082;SDS011;18597;48.328;7.932;2023-02-11T10:07:20;37.20;;;21.40;;
32082;SDS011;18597;48.328;7.932;2023-02-11T10:10:12;42.77;;;21.93;;
32082;SDS011;18597;48.328;7.932;2023-02-11T10:13:19;33.00;;;20.30;;
32082;SDS011;18597;48.328;7.932;2023-02-11T10:16:08;37.03;;;19.80;;
32082;SDS011;18597;48.328;7.932;2023-02-11T10:22:17;42.80;;;21.50;;
32082;SDS011;18597;48.328;7.932;2023-02-11T10:24:51;42.33;;;22.10;;
32082;SDS011;18597;48.328;7.932;2023-02-11T10:27:23;40.63;;;22.30;;
32082;SDS011;18597;48.328;7.932;2023-02-11T10:29:56;36.23;;;21.43;;
32082;SDS011;18597;48.328;7.932;2023-02-11T10:32:37;36.83;;;19.30;;
32082;SDS011;18597;48.328;7.932;2023-02-11T10:35:14;36.90;;;20.60;;
32082;SDS011;18597;48.328;7.932;2023-02-11T10:37:45;36.50;;;20.57;;
32082;SDS011;18597;48.328;7.932;2023-02-11T10:40:13;35.43;;;20.33;;
32082;SDS011;18597;48.328;7.932;2023-02-11T10:42:43;35.87;;;20.40;;
32082;SDS011;18597;48.328;7.932;2023-02-11T10:45:22;36.97;;;21.33;;
32082;SDS011;18597;48.328;7.932;2023-02-11T10:48:03;38.43;;;20.63;;
32082;SDS011;18597;48.328;7.932;2023-02-11T10:50:31;37.57;;;22.10;;
32082;SDS011;18597;48.328;7.932;2023-02-11T10:53:30;38.60;;;22.90;;
32082;SDS011;18597;48.328;7.932;2023-02-11T10:55:49;36.40;;;22.60;;
32082;SDS011;18597;48.328;7.932;2023-02-11T10:58:23;36.93;;;21.00;;
32082;SDS011;18597;48.328;7.932;2023-02-11T11:00:54;37.73;;;23.20;;
32082;SDS011;18597;48.328;7.932;2023-02-11T11:03:23;36.90;;;22.00;;
32082;SDS011;18597;48.328;7.932;2023-02-11T11:05:56;42.77;;;24.33;;
32082;SDS011;18597;48.328;7.932;2023-02-11T11:08:56;41.90;;;23.30;;
32082;SDS011;18597;48.328;7.932;2023-02-11T11:11:14;33.43;;;21.90;;
32082;SDS011;18597;48.328;7.932;2023-02-11T11:13:58;40.40;;;23.47;;
32082;SDS011;18597;48.328;7.932;2023-02-11T11:16:28;37.00;;;23.03;;
32082;SDS011;18597;48.328;7.932;2023-02-11T11:19:14;34.07;;;22.30;;
32082;SDS011;18597;48.328;7.932;2023-02-11T11:21:54;45.63;;;25.10;;
32082;SDS011;18597;48.328;7.932;2023-02-11T11:24:23;41.13;;;23.40;;
32082;SDS011;18597;48.328;7.932;2023-02-11T11:27:03;38.50;;;22.53;;
32082;SDS011;18597;48.328;7.932;2023-02-11T11:29:38;49.10;;;27.67;;
32082;SDS011;18597;48.328;7.932;2023-02-11T11:32:17;36.43;;;23.03;;
32082;SDS011;18597;48.328;7.932;2023-02-11T11:34:49;50.33;;;26.20;;
32082;SDS011;18597;48.328;7.932;2023-02-11T11:37:24;46.67;;;26.53;;
32082;SDS011;18597;48.328;7.932;2023-02-11T11:40:03;44.73;;;26.37;;
32082;SDS011;18597;48.328;7.932;2023-02-11T11:42:46;43.37;;;24.23;;
32082;SDS011;18597;48.328;7.932;2023-02-11T11:45:39;46.47;;;27.30;;
32082;SDS011;18597;48.328;7.932;2023-02-11T11:48:24;46.10;;;26.10;;
32082;SDS011;18597;48.328;7.932;2023-02-11T11:51:10;38.77;;;21.33;;
32082;SDS011;18597;48.328;7.932;2023-02-11T11:53:55;43.00;;;21.67;;
32082;SDS011;18597;48.328;7.932;2023-02-11T11:56:29;38.90;;;24.50;;
32082;SDS011;18597;48.328;7.932;2023-02-11T11:59:00;37.17;;;22.00;;
32082;SDS011;18597;48.328;7.932;2023-02-11T12:04:30;38.20;;;23.67;;
32082;SDS011;18597;48.328;7.932;2023-02-11T12:07:45;49.60;;;27.03;;
32082;SDS011;18597;48.328;7.932;2023-02-11T12:10:30;37.60;;;23.40;;
32082;SDS011;18597;48.328;7.932;2023-02-11T12:16:40;36.90;;;19.33;;
32082;SDS011;18597;48.328;7.932;2023-02-11T12:19:55;26.80;;;18.03;;
32082;SDS011;18597;48.328;7.932;2023-02-11T12:26:21;27.80;;;18.07;;
32082;SDS011;18597;48.328;7.932;2023-02-11T12:29:30;26.80;;;16.03;;
32082;SDS011;18597;48.328;7.932;2023-02-11T12:32:19;24.70;;;15.60;;
32082;SDS011;18597;48.328;7.932;2023-02-11T12:35:05;27.47;;;16.93;;
32082;SDS011;18597;48.328;7.932;2023-02-11T12:42:03;35.13;;;20.83;;
32082;SDS011;18597;48.328;7.932;2023-02-11T12:43:40;31.03;;;17.80;;
32082;SDS011;18597;48.328;7.932;2023-02-11T12:54:58;25.00;;;15.90;;
32082;SDS011;18597;48.328;7.932;2023-02-11T12:57:33;25.23;;;15.47;;
32082;SDS011;18597;48.328;7.932;2023-02-11T13:00:04;22.50;;;16.00;;
32082;SDS011;18597;48.328;7.932;2023-02-11T13:05:43;27.10;;;15.90;;
32082;SDS011;18597;48.328;7.932;2023-02-11T13:08:16;31.30;;;18.23;;
32082;SDS011;18597;48.328;7.932;2023-02-11T13:11:23;27.80;;;18.13;;
32082;SDS011;18597;48.328;7.932;2023-02-11T13:14:01;32.03;;;17.90;;
32082;SDS011;18597;48.328;7.932;2023-02-11T13:16:40;33.17;;;17.27;;
32082;SDS011;18597;48.328;7.932;2023-02-11T13:28:13;28.63;;;16.10;;
32082;SDS011;18597;48.328;7.932;2023-02-11T13:30:49;25.97;;;16.93;;
32082;SDS011;18597;48.328;7.932;2023-02-11T13:33:29;23.13;;;14.93;;
32082;SDS011;18597;48.328;7.932;2023-02-11T13:38:49;30.33;;;17.03;;
32082;SDS011;18597;48.328;7.932;2023-02-11T13:41:26;23.80;;;15.73;;
32082;SDS011;18597;48.328;7.932;2023-02-11T13:46:51;25.00;;;15.47;;
32082;SDS011;18597;48.328;7.932;2023-02-11T13:49:23;29.30;;;15.83;;
32082;SDS011;18597;48.328;7.932;2023-02-11T13:52:19;25.83;;;16.03;;
32082;SDS011;18597;48.328;7.932;2023-02-11T13:54:51;31.17;;;16.10;;
32082;SDS011;18597;48.328;7.932;2023-02-11T13:57:22;29.60;;;18.20;;
32082;SDS011;18597;48.328;7.932;2023-02-11T13:59:56;28.40;;;17.43;;
32082;SDS011;18597;48.328;7.932;2023-02-11T14:06:08;27.83;;;17.50;;
32082;SDS011;18597;48.328;7.932;2023-02-11T14:08:58;19.77;;;14.13;;
32082;SDS011;18597;48.328;7.932;2023-02-11T14:11:50;23.03;;;15.30;;
32082;SDS011;18597;48.328;7.932;2023-02-11T14:14:24;16.07;;;11.87;;
32082;SDS011;18597;48.328;7.932;2023-02-11T14:19:43;14.37;;;9.73;;
32082;SDS011;18597;48.328;7.932;2023-02-11T14:22:13;9.13;;;7.50;;
32082;SDS011;18597;48.328;7.932;2023-02-11T14:24:53;12.47;;;7.43;;
32082;SDS011;18597;48.328;7.932;2023-02-11T14:27:41;10.87;;;7.00;;
32082;SDS011;18597;48.328;7.932;2023-02-11T14:35:52;8.40;;;5.83;;
32082;SDS011;18597;48.328;7.932;2023-02-11T14:39:25;7.27;;;5.60;;
32082;SDS011;18597;48.328;7.932;2023-02-11T14:41:56;18.93;;;6.20;;
32082;SDS011;18597;48.328;7.932;2023-02-11T14:44:27;14.73;;;7.50;;
32082;SDS011;18597;48.328;7.932;2023-02-11T14:46:56;18.20;;;9.30;;
32082;SDS011;18597;48.328;7.932;2023-02-11T14:49:27;10.67;;;9.57;;
32082;SDS011;18597;48.328;7.932;2023-02-11T14:51:59;19.90;;;10.90;;
32082;SDS011;18597;48.328;7.932;2023-02-11T14:54:52;17.90;;;11.30;;
32082;SDS011;18597;48.328;7.932;2023-02-11T14:57:33;14.67;;;10.37;;
32082;SDS011;18597;48.328;7.932;2023-02-11T15:00:04;23.10;;;11.03;;
32082;SDS011;18597;48.328;7.932;2023-02-11T15:02:45;15.60;;;9.67;;
32082;SDS011;18597;48.328;7.932;2023-02-11T15:05:13;15.30;;;10.53;;
32082;SDS011;18597;48.328;7.932;2023-02-11T15:07:51;15.70;;;9.27;;
32082;SDS011;18597;48.328;7.932;2023-02-11T15:10:25;14.70;;;9.77;;
32082;SDS011;18597;48.328;7.932;2023-02-11T15:12:57;12.27;;;8.60;;
32082;SDS011;18597;48.328;7.932;2023-02-11T15:15:25;11.57;;;8.47;;
32082;SDS011;18597;48.328;7.932;2023-02-11T15:17:52;14.53;;;9.23;;
32082;SDS011;18597;48.328;7.932;2023-02-11T15:20:24;11.60;;;7.83;;
32082;SDS011;18597;48.328;7.932;2023-02-11T15:22:55;12.90;;;7.77;;
32082;SDS011;18597;48.328;7.932;2023-02-11T15:25:25;13.73;;;9.00;;
32082;SDS011;18597;48.328;7.932;2023-02-11T15:27:53;17.53;;;8.80;;
32082;SDS011;18597;48.328;7.932;2023-02-11T15:32:58;11.50;;;8.80;;
32082;SDS011;18597;48.328;7.932;2023-02-11T15:35:29;16.67;;;9.73;;
32082;SDS011;18597;48.328;7.932;2023-02-11T15:38:00;12.50;;;8.27;;
32082;SDS011;18597;48.328;7.932;2023-02-11T15:40:28;12.73;;;8.83;;
32082;SDS011;18597;48.328;7.932;2023-02-11T15:43:00;12.23;;;8.10;;
32082;SDS011;18597;48.328;7.932;2023-02-11T15:45:34;13.87;;;7.57;;
32082;SDS011;18597;48.328;7.932;2023-02-11T15:48:08;8.90;;;8.00;;
32082;SDS011;18597;48.328;7.932;2023-02-11T15:50:50;23.73;;;15.23;;
32082;SDS011;18597;48.328;7.932;2023-02-11T15:53:28;25.80;;;16.60;;
32082;SDS011;18597;48.328;7.932;2023-02-11T15:56:02;21.10;;;10.83;;
32082;SDS011;18597;48.328;7.932;2023-02-11T15:58:42;14.03;;;9.47;;
32082;SDS011;18597;48.328;7.932;2023-02-11T16:01:11;12.63;;;9.83;;
32082;SDS011;18597;48.328;7.932;2023-02-11T16:03:37;11.60;;;8.10;;
32082;SDS011;18597;48.328;7.932;2023-02-11T16:06:23;16.07;;;9.00;;
32082;SDS011;18597;48.328;7.932;2023-02-11T16:09:02;11.40;;;9.83;;
32082;SDS011;18597;48.328;7.932;2023-02-11T16:14:30;16.93;;;10.83;;
32082;SDS011;18597;48.328;7.932;2023-02-11T16:17:11;15.07;;;9.90;;
32082;SDS011;18597;48.328;7.932;2023-02-11T16:19:49;24.43;;;13.80;;